Time;durP1;ratioP1;P1;durP2;ratioP2;P2;SDS_P1;SDS_P2;PMS_P1;PMS_P2;Temp;Humidity;BMP_temperature;BMP_pressure;BME280_temperature;BME280_humidity;BME280_pressure;Samples;Min_cycle;Max_cycle;Signal;HPM_P1;HPM_P2
2022/05/30 00:01:32;;;;;;;5.40;4.10;;;;;;;;;;5109091;28;20281;-76
2022/05/30 00:03:57;;;;;;;7.80;4.13;;;;;;;;;;5090185;28;20299;-76
2022/05/30 00:06:23;;;;;;;9.67;3.97;;;;;;;;;;5093002;28;20276;-75
2022/05/30 00:08:49;;;;;;;7.53;4.20;;;;;;;;;;5094460;28;20279;-75
2022/05/30 00:11:15;;;;;;;8.10;4.03;;;;;;;;;;5094939;28;20390;-75
2022/05/30 00:13:41;;;;;;;6.70;3.90;;;;;;;;;;5095574;28;20048;-75
2022/05/30 00:16:08;;;;;;;8.90;3.92;;;;;;;;;;5089958;28;20115;-75
2022/05/30 00:18:34;;;;;;;8.55;4.07;;;;;;;;;;5094948;28;20036;-74
2022/05/30 00:20:59;;;;;;;4.88;3.85;;;;;;;;;;5096247;28;20035;-76
2022/05/30 00:23:25;;;;;;;6.18;3.88;;;;;;;;;;5092881;28;20059;-77
2022/05/30 00:25:50;;;;;;;8.95;3.92;;;;;;;;;;5088820;28;20040;-76
2022/05/30 00:28:16;;;;;;;5.03;3.97;;;;;;;;;;5092775;28;20039;-76
2022/05/30 00:30:42;;;;;;;5.70;4.10;;;;;;;;;;5103960;28;20093;-76
2022/05/30 00:33:07;;;;;;;8.15;4.00;;;;;;;;;;5092037;28;20905;-76
2022/05/30 00:35:33;;;;;;;7.55;4.25;;;;;;;;;;5090100;28;20115;-76
2022/05/30 00:37:58;;;;;;;9.27;4.43;;;;;;;;;;5103870;28;20054;-77
2022/05/30 00:40:23;;;;;;;6.20;3.90;;;;;;;;;;5109792;28;20048;-75
2022/05/30 00:42:48;;;;;;;5.15;4.10;;;;;;;;;;5091753;28;20473;-75
2022/05/30 00:45:14;;;;;;;7.90;4.30;;;;;;;;;;5108942;28;20054;-75
2022/05/30 00:47:39;;;;;;;8.25;4.78;;;;;;;;;;5112138;28;20039;-77
2022/05/30 00:50:05;;;;;;;7.40;4.20;;;;;;;;;;5109768;28;20032;-76
2022/05/30 00:52:39;;;;;;;5.97;3.80;;;;;;;;;;5112136;28;20287;-75
2022/05/30 00:55:04;;;;;;;7.60;3.85;;;;;;;;;;5107425;28;20063;-76
2022/05/30 00:57:31;;;;;;;6.30;4.20;;;;;;;;;;5091003;28;20067;-75
2022/05/30 00:59:57;;;;;;;7.75;3.75;;;;;;;;;;5094288;28;21015;-75
2022/05/30 01:02:24;;;;;;;8.20;4.80;;;;;;;;;;5092197;28;20036;-74
2022/05/30 01:07:36;;;;;;;7.15;4.43;;;;;;;;;;5111060;28;20036;-75
2022/05/30 01:10:02;;;;;;;5.63;4.35;;;;;;;;;;5112695;28;20047;-71
2022/05/30 01:12:36;;;;;;;6.45;4.53;;;;;;;;;;5110574;28;20039;-71
2022/05/30 01:15:02;;;;;;;9.13;4.40;;;;;;;;;;5092156;28;20920;-71
2022/05/30 01:17:28;;;;;;;7.65;4.30;;;;;;;;;;5109499;28;20047;-69
2022/05/30 01:19:53;;;;;;;5.93;4.15;;;;;;;;;;5110917;28;20446;-71
2022/05/30 01:22:18;;;;;;;7.70;4.20;;;;;;;;;;5091182;28;20035;-71
2022/05/30 01:24:53;;;;;;;6.97;4.47;;;;;;;;;;5109105;28;20776;-70
2022/05/30 01:27:34;;;;;;;7.57;3.83;;;;;;;;;;5106164;28;20366;-71
2022/05/30 01:30:03;;;;;;;11.88;4.00;;;;;;;;;;5091113;28;20116;-72
2022/05/30 01:32:28;;;;;;;6.82;3.70;;;;;;;;;;5111292;28;20093;-71
2022/05/30 01:34:53;;;;;;;5.83;3.20;;;;;;;;;;5111394;28;20036;-71
2022/05/30 01:37:19;;;;;;;7.03;3.83;;;;;;;;;;5110565;28;20646;-71
2022/05/30 01:39:44;;;;;;;7.80;3.50;;;;;;;;;;5110679;28;20336;-71
2022/05/30 01:42:09;;;;;;;7.10;3.93;;;;;;;;;;5109297;28;20272;-71
2022/05/30 01:44:35;;;;;;;4.45;3.28;;;;;;;;;;5108387;28;20050;-72
2022/05/30 01:47:00;;;;;;;5.40;3.75;;;;;;;;;;5105226;28;20108;-71
2022/05/30 01:49:26;;;;;;;6.30;3.27;;;;;;;;;;5107053;28;20117;-72
2022/05/30 01:51:54;;;;;;;8.32;3.70;;;;;;;;;;5105677;28;20275;-71
2022/05/30 01:54:19;;;;;;;6.68;3.50;;;;;;;;;;5109315;28;20031;-71
2022/05/30 01:56:44;;;;;;;6.30;3.33;;;;;;;;;;5079761;28;20040;-71
2022/05/30 01:59:09;;;;;;;6.53;3.40;;;;;;;;;;5091639;28;20039;-72
2022/05/30 02:01:35;;;;;;;5.33;3.57;;;;;;;;;;5110019;28;20296;-72
2022/05/30 02:04:01;;;;;;;4.97;3.20;;;;;;;;;;5091689;28;20278;-71
2022/05/30 02:06:26;;;;;;;6.22;3.05;;;;;;;;;;5090866;28;21000;-72
2022/05/30 02:08:52;;;;;;;7.35;3.72;;;;;;;;;;5106026;28;20096;-71
2022/05/30 02:11:18;;;;;;;7.50;3.83;;;;;;;;;;5110249;28;20032;-70
2022/05/30 02:13:43;;;;;;;6.85;3.72;;;;;;;;;;5110405;28;20039;-72
2022/05/30 02:18:55;;;;;;;4.80;3.67;;;;;;;;;;5105989;28;20389;-71
2022/05/30 02:21:20;;;;;;;7.82;3.40;;;;;;;;;;5105816;28;20050;-72
2022/05/30 02:23:45;;;;;;;6.43;3.73;;;;;;;;;;5109702;28;20366;-72
2022/05/30 02:26:11;;;;;;;9.30;4.10;;;;;;;;;;5109842;28;20039;-71
2022/05/30 02:28:36;;;;;;;11.13;3.67;;;;;;;;;;5086786;28;20040;-71
2022/05/30 02:31:01;;;;;;;5.70;3.70;;;;;;;;;;5110342;28;20404;-72
2022/05/30 02:38:54;;;;;;;4.63;3.13;;;;;;;;;;5110408;28;20044;-71
2022/05/30 02:41:20;;;;;;;6.93;3.33;;;;;;;;;;5091283;28;20035;-69
2022/05/30 02:43:46;;;;;;;5.88;3.42;;;;;;;;;;5107368;28;20059;-71
2022/05/30 02:46:11;;;;;;;4.72;3.30;;;;;;;;;;5102180;28;20040;-71
2022/05/30 02:48:37;;;;;;;5.43;3.70;;;;;;;;;;5092010;28;20050;-71
2022/05/30 02:51:02;;;;;;;8.03;3.80;;;;;;;;;;5109600;28;20058;-72
2022/05/30 02:53:28;;;;;;;8.55;3.72;;;;;;;;;;5110810;28;20296;-69
2022/05/30 02:55:53;;;;;;;6.97;3.80;;;;;;;;;;5090815;28;20035;-71
2022/05/30 02:58:18;;;;;;;6.90;2.93;;;;;;;;;;5089893;28;20031;-71
2022/05/30 03:00:43;;;;;;;8.77;3.83;;;;;;;;;;5110706;28;20666;-71
2022/05/30 03:03:08;;;;;;;5.80;3.50;;;;;;;;;;5112310;28;20039;-72
2022/05/30 03:05:34;;;;;;;4.57;3.50;;;;;;;;;;5114345;28;20036;-71
2022/05/30 03:08:03;;;;;;;7.05;3.40;;;;;;;;;;5071467;28;20350;-71
2022/05/30 03:10:28;;;;;;;16.33;3.45;;;;;;;;;;5108584;28;20039;-71
2022/05/30 03:12:53;;;;;;;5.32;2.95;;;;;;;;;;5112800;28;20513;-69
2022/05/30 03:15:19;;;;;;;5.70;3.00;;;;;;;;;;5111497;28;20036;-69
2022/05/30 03:17:44;;;;;;;8.87;3.30;;;;;;;;;;5093861;28;20122;-68
2022/05/30 03:20:09;;;;;;;8.05;3.00;;;;;;;;;;5092600;28;20036;-68
2022/05/30 03:22:34;;;;;;;7.68;3.45;;;;;;;;;;5112661;28;20036;-70
2022/05/30 03:25:00;;;;;;;5.57;3.13;;;;;;;;;;5083790;28;20047;-68
2022/05/30 03:27:25;;;;;;;5.27;2.90;;;;;;;;;;5092318;28;20298;-69
2022/05/30 03:29:50;;;;;;;5.77;3.13;;;;;;;;;;5092544;28;20375;-70
2022/05/30 03:32:15;;;;;;;5.43;3.20;;;;;;;;;;5106737;28;20473;-68
2022/05/30 03:34:41;;;;;;;4.93;3.47;;;;;;;;;;5113071;28;20263;-68
2022/05/30 03:37:06;;;;;;;4.90;3.27;;;;;;;;;;5088061;28;20104;-69
2022/05/30 03:39:31;;;;;;;6.47;3.30;;;;;;;;;;5092287;28;20634;-68
2022/05/30 03:41:57;;;;;;;6.40;3.63;;;;;;;;;;5111965;28;20267;-68
2022/05/30 03:44:23;;;;;;;7.07;3.50;;;;;;;;;;5091612;28;20043;-70
2022/05/30 03:46:48;;;;;;;6.28;3.50;;;;;;;;;;5112949;28;20032;-69
2022/05/30 03:49:13;;;;;;;9.40;3.53;;;;;;;;;;5112336;28;20045;-75
2022/05/30 03:51:38;;;;;;;7.33;3.27;;;;;;;;;;5091696;28;20808;-75
2022/05/30 03:54:04;;;;;;;7.80;3.57;;;;;;;;;;5111724;28;20036;-75
2022/05/30 03:56:29;;;;;;;8.77;3.40;;;;;;;;;;5113450;28;20264;-74
2022/05/30 03:58:54;;;;;;;33.90;17.80;;;;;;;;;;5109172;28;20036;-75
2022/05/30 04:01:20;;;;;;;8.37;4.77;;;;;;;;;;5090590;28;20027;-75
2022/05/30 04:03:45;;;;;;;7.85;3.05;;;;;;;;;;5108343;28;20908;-76
2022/05/30 04:06:11;;;;;;;5.82;3.00;;;;;;;;;;5093119;28;20431;-75
2022/05/30 04:08:36;;;;;;;6.77;3.00;;;;;;;;;;5114377;28;20587;-75
2022/05/30 04:11:01;;;;;;;8.98;3.17;;;;;;;;;;5087608;28;20370;-73
2022/05/30 04:13:27;;;;;;;4.28;3.20;;;;;;;;;;5105356;28;20038;-73
2022/05/30 04:15:52;;;;;;;6.25;3.20;;;;;;;;;;5111231;28;20114;-72
2022/05/30 04:18:18;;;;;;;3.87;2.90;;;;;;;;;;5090514;28;20082;-73
2022/05/30 04:20:44;;;;;;;7.65;3.42;;;;;;;;;;5113541;28;20308;-72
2022/05/30 04:23:09;;;;;;;6.72;3.35;;;;;;;;;;5090066;28;20035;-74
2022/05/30 04:25:35;;;;;;;8.30;2.83;;;;;;;;;;5092853;28;20529;-70
2022/05/30 04:28:01;;;;;;;5.07;3.30;;;;;;;;;;5110951;28;20264;-73
2022/05/30 04:30:27;;;;;;;9.75;3.42;;;;;;;;;;5112983;28;20032;-73
2022/05/30 04:32:52;;;;;;;6.80;3.53;;;;;;;;;;5110600;28;20042;-72
2022/05/30 04:35:18;;;;;;;4.80;3.35;;;;;;;;;;5111735;28;20037;-72
2022/05/30 04:37:45;;;;;;;5.53;3.30;;;;;;;;;;5111049;28;20048;-72
2022/05/30 04:40:13;;;;;;;5.10;3.30;;;;;;;;;;5093675;28;20039;-72
2022/05/30 04:42:39;;;;;;;8.95;3.38;;;;;;;;;;5092940;28;20039;-73
2022/05/30 04:45:05;;;;;;;5.20;3.35;;;;;;;;;;5110412;28;20028;-71
2022/05/30 04:47:35;;;;;;;4.90;3.08;;;;;;;;;;5112595;28;20028;-72
2022/05/30 04:50:01;;;;;;;3.70;2.70;;;;;;;;;;5105611;28;20153;-71
2022/05/30 04:52:26;;;;;;;8.10;3.13;;;;;;;12.63;nan;100088.09;5109519;28;20036;-71
2022/05/30 04:54:51;;;;;;;5.82;2.95;;;;;;;;;;5112266;28;20040;-73
2022/05/30 04:57:17;;;;;;;10.03;3.17;;;;;;;;;;5107516;28;20358;-72
2022/05/30 04:59:42;;;;;;;4.40;3.07;;;;;;;;;;5093379;28;20260;-72
2022/05/30 05:02:09;;;;;;;7.88;3.63;;;;;;;;;;5091153;28;20614;-69
2022/05/30 05:04:35;;;;;;;6.53;3.45;;;;;;;;;;5091944;28;20042;-71
2022/05/30 05:07:02;;;;;;;8.15;3.40;;;;;;;;;;5104863;28;20035;-72
2022/05/30 05:09:51;;;;;;;5.05;2.92;;;;;;;;;;5093151;28;20023;-71
2022/05/30 05:12:16;;;;;;;8.48;3.28;;;;;;;;;;5079392;28;20039;-69
2022/05/30 05:14:41;;;;;;;8.80;3.00;;;;;;;;;;5092622;28;20534;-71
2022/05/30 05:17:07;;;;;;;9.07;3.40;;;;;;;;;;5105706;28;20420;-69
2022/05/30 05:19:33;;;;;;;7.20;3.42;;;;;;;;;;5089867;28;20122;-71
2022/05/30 05:21:58;;;;;;;12.40;3.35;;;;;;;;;;5084117;28;20585;-71
2022/05/30 05:24:24;;;;;;;10.25;3.22;;;;;;;;;;5088796;28;20093;-71
2022/05/30 05:26:49;;;;;;;4.75;3.30;;;;;;;;;;5109727;28;20028;-71
2022/05/30 05:29:15;;;;;;;6.38;2.88;;;;;;;;;;5093132;28;20036;-71
2022/05/30 05:31:41;;;;;;;8.10;3.03;;;;;;;;;;5110830;28;20072;-70
2022/05/30 05:34:07;;;;;;;4.88;3.35;;;;;;;;;;5109067;28;20456;-69
2022/05/30 05:36:34;;;;;;;10.40;3.33;;;;;;;;;;5110697;28;20068;-70
2022/05/30 05:39:00;;;;;;;7.20;3.15;;;;;;;;;;5111171;28;20118;-70
2022/05/30 05:41:25;;;;;;;6.97;3.25;;;;;;;;;;5111120;28;20689;-70
2022/05/30 05:43:53;;;;;;;5.25;2.95;;;;;;;;;;5092722;28;20036;-70
2022/05/30 05:46:19;;;;;;;7.10;3.38;;;;;;;;;;5107383;28;20059;-70
2022/05/30 05:48:45;;;;;;;6.97;3.08;;;;;;;;;;5087106;28;20045;-72
2022/05/30 05:51:10;;;;;;;6.15;2.80;;;;;;;;;;5092379;28;20355;-71
2022/05/30 05:53:36;;;;;;;6.70;2.90;;;;;;;;;;5106935;28;20031;-69
2022/05/30 05:56:27;;;;;;;4.57;2.50;;;;;;;;;;5108526;28;20038;-71
2022/05/30 05:58:53;;;;;;;3.72;2.67;;;;;;;;;;5103739;28;20035;-72
2022/05/30 06:01:24;;;;;;;7.53;3.30;;;;;;;;;;5111378;28;20043;-72
2022/05/30 06:03:57;;;;;;;5.10;2.58;;;;;;;;;;5107148;28;20031;-71
2022/05/30 06:06:22;;;;;;;5.53;2.60;;;;;;;;;;5108500;28;20480;-72
2022/05/30 06:08:48;;;;;;;7.15;2.83;;;;;;;;;;5111409;28;20118;-72
2022/05/30 06:11:15;;;;;;;12.45;3.13;;;;;;;;;;5101793;28;20051;-72
2022/05/30 06:13:44;;;;;;;3.92;2.60;;;;;;;;;;5107615;28;20035;-71
2022/05/30 06:16:24;;;;;;;8.70;2.50;;;;;;;;;;5103782;28;20610;-71
2022/05/30 06:18:50;;;;;;;5.32;2.50;;;;;;;;;;5108245;28;20024;-71
2022/05/30 06:21:15;;;;;;;4.93;2.60;;;;;;;;;;5109116;28;20089;-71
2022/05/30 06:23:41;;;;;;;7.25;2.30;;;;;;;;;;5086121;28;20115;-72
2022/05/30 06:26:07;;;;;;;5.07;2.53;;;;;;;;;;5106618;28;20035;-72
2022/05/30 06:28:33;;;;;;;7.28;2.80;;;;;;;;;;5089517;28;20504;-72
2022/05/30 06:30:59;;;;;;;5.15;2.60;;;;;;;;;;5109390;28;20035;-72
2022/05/30 06:33:24;;;;;;;4.20;2.47;;;;;;;;;;5109755;28;20495;-71
2022/05/30 06:35:49;;;;;;;3.53;2.20;;;;;;;;;;5111872;28;20268;-70
2022/05/30 06:38:16;;;;;;;3.60;2.40;;;;;;;;;;5110857;28;20284;-71
2022/05/30 06:40:42;;;;;;;6.03;2.78;;;;;;;;;;5113293;28;20097;-71
2022/05/30 06:43:08;;;;;;;2.78;2.15;;;;;;;;;;5094901;28;20700;-72
2022/05/30 06:45:34;;;;;;;5.57;2.50;;;;;;;;;;5093768;28;20131;-71
2022/05/30 06:47:59;;;;;;;3.60;2.30;;;;;;;;;;5107682;28;20443;-71
2022/05/30 06:50:25;;;;;;;8.55;2.95;;;;;;;;;;5111118;28;20035;-71
2022/05/30 06:52:50;;;;;;;5.07;2.20;;;;;;;;;;5089280;28;20131;-71
2022/05/30 06:55:15;;;;;;;5.33;2.40;;;;;;;;;;5117709;28;20071;-72
2022/05/30 07:00:25;;;;;;;6.97;2.53;;;;;;;;;;5108347;28;20727;-68
2022/05/30 07:02:51;;;;;;;5.27;2.50;;;;;;;;;;5092786;28;20092;-68
2022/05/30 07:05:17;;;;;;;3.60;2.30;;;;;;;;;;5114157;28;20264;-69
2022/05/30 07:07:42;;;;;;;3.85;2.58;;;;;;;;;;5113743;28;20105;-69
2022/05/30 07:10:08;;;;;;;6.63;2.72;;;;;;;;;;5113726;28;20795;-71
2022/05/30 07:12:34;;;;;;;5.07;2.22;;;;;;;;;;5113788;28;20036;-71
2022/05/30 07:14:59;;;;;;;7.43;2.65;;;;;;;;;;5089013;28;20683;-69
2022/05/30 07:17:25;;;;;;;3.20;2.60;;;;;;;;;;5110969;28;20032;-69
2022/05/30 07:19:51;;;;;;;4.93;2.42;;;;;;;15.99;nan;100246.09;5107157;28;20296;-67
2022/05/30 07:22:16;;;;;;;4.97;2.80;;;;;;;;;;5110723;28;20031;-71
2022/05/30 07:24:41;;;;;;;4.90;2.20;;;;;;;;;;5112588;28;20119;-71
2022/05/30 07:27:06;;;;;;;9.80;2.90;;;;;;;;;;5112698;28;20716;-72
2022/05/30 07:29:32;;;;;;;4.70;2.77;;;;;;;;;;5094422;28;20118;-71
2022/05/30 07:31:58;;;;;;;6.03;2.80;;;;;;;;;;5110963;28;20349;-72
2022/05/30 07:34:23;;;;;;;6.50;3.08;;;;;;;;;;5113724;28;20276;-72
2022/05/30 07:36:49;;;;;;;4.13;2.45;;;;;;;;;;5105162;28;20105;-72
2022/05/30 07:39:14;;;;;;;7.53;2.40;;;;;;;;;;5111848;28;20035;-71
2022/05/30 07:41:39;;;;;;;4.97;2.40;;;;;;;;;;5107676;28;20114;-72
2022/05/30 07:44:05;;;;;;;4.75;2.70;;;;;;;;;;5094461;28;20043;-72
2022/05/30 07:46:30;;;;;;;4.05;2.30;;;;;;;;;;5111760;28;20036;-72
2022/05/30 07:48:55;;;;;;;3.37;2.10;;;;;;;;;;5095062;28;20043;-71
2022/05/30 07:51:20;;;;;;;4.93;2.00;;;;;;;;;;5105824;28;20861;-72
2022/05/30 07:53:46;;;;;;;7.07;2.90;;;;;;;;;;5112143;28;20284;-72
2022/05/30 07:56:12;;;;;;;5.50;2.53;;;;;;;;;;5111667;28;20039;-72
2022/05/30 07:58:38;;;;;;;5.30;2.15;;;;;;;;;;5112060;28;20039;-72
2022/05/30 08:01:04;;;;;;;6.47;2.55;;;;;;;;;;5111696;28;20063;-73
2022/05/30 08:03:29;;;;;;;5.15;2.25;;;;;;;;;;5094437;28;20045;-73
2022/05/30 08:06:05;;;;;;;5.35;2.40;;;;;;;;;;5112110;28;20424;-72
2022/05/30 08:08:30;;;;;;;6.65;2.03;;;;;;;;;;5112577;28;20023;-72
2022/05/30 08:10:55;;;;;;;5.20;2.38;;;;;;;;;;5111231;28;20089;-69
2022/05/30 08:13:21;;;;;;;5.63;2.20;;;;;;;;;;5111718;28;20039;-69
2022/05/30 08:15:46;;;;;;;7.53;2.70;;;;;;;;;;5089286;28;20280;-72
2022/05/30 08:18:15;;;;;;;4.25;2.53;;;;;;;;;;5107590;28;20023;-72
2022/05/30 08:20:41;;;;;;;4.18;2.42;;;;;;;;;;5110754;28;20091;-73
2022/05/30 08:23:07;;;;;;;8.07;2.15;;;;;;;;;;5091818;28;20522;-72
2022/05/30 08:25:33;;;;;;;6.68;2.65;;;;;;;16.52;nan;100232.53;5090770;28;20044;-73
2022/05/30 08:27:58;;;;;;;6.70;2.67;;;;;;;;;;5112262;28;20031;-72
2022/05/30 08:30:23;;;;;;;3.55;1.92;;;;;;;16.55;nan;100170.88;5088396;28;20035;-70
2022/05/30 08:32:49;;;;;;;4.30;2.58;;;;;;;;;;5093730;28;20099;-72
2022/05/30 08:35:15;;;;;;;3.97;2.55;;;;;;;;;;5110913;28;20039;-71
2022/05/30 08:37:41;;;;;;;6.32;3.00;;;;;;;;;;5087102;28;20441;-70
2022/05/30 08:43:02;;;;;;;7.90;2.80;;;;;;;;;;5090272;28;20036;-73
2022/05/30 08:45:28;;;;;;;4.97;2.75;;;;;;;16.66;nan;100201.66;5091649;28;20508;-72
2022/05/30 08:47:54;;;;;;;6.88;3.25;;;;;;;;;;5083689;28;20040;-72
2022/05/30 08:50:26;;;;;;;3.63;2.47;;;;;;;;;;5088667;28;20039;-71
2022/05/30 08:52:51;;;;;;;4.88;2.47;;;;;;;;;;5090976;28;20284;-73
2022/05/30 08:55:26;;;;;;;5.13;2.37;;;;;;;;;;5089043;28;20482;-73
2022/05/30 08:58:12;;;;;;;3.50;2.15;;;;;;;;;;5082498;28;20043;-73
2022/05/30 09:00:45;;;;;;;4.40;2.35;;;;;;;;;;5078909;28;20390;-72
2022/05/30 09:03:26;;;;;;;4.47;2.35;;;;;;;16.77;nan;100139.41;5086250;28;20060;-72
2022/05/30 09:05:57;;;;;;;6.07;2.70;;;;;;;;;;5087482;28;20102;-73
2022/05/30 09:08:32;;;;;;;4.78;2.72;;;;;;;16.71;nan;100204.34;5091080;28;20035;-73
2022/05/30 09:11:03;;;;;;;5.93;2.60;;;;;;;;;;5084518;28;20040;-73
2022/05/30 09:13:40;;;;;;;5.72;2.60;;;;;;;;;;5091346;28;20032;-73
2022/05/30 09:16:17;;;;;;;6.20;2.80;;;;;;;;;;5087319;28;20039;-72
2022/05/30 09:18:45;;;;;;;8.38;2.58;;;;;;;;;;5091696;28;20027;-73
2022/05/30 09:21:11;;;;;;;6.03;3.10;;;;;;;;;;5088936;28;20386;-73
2022/05/30 09:23:37;;;;;;;7.40;3.55;;;;;;;;;;5090905;28;20556;-73
2022/05/30 09:26:07;;;;;;;6.05;3.20;;;;;;;;;;5091410;28;20119;-73
2022/05/30 09:28:36;;;;;;;6.75;3.38;;;;;;;;;;5090437;28;20036;-73
2022/05/30 09:31:04;;;;;;;6.38;3.60;;;;;;;;;;5088589;28;20136;-73
2022/05/30 09:33:29;;;;;;;4.20;2.45;;;;;;;;;;5090915;28;20044;-72
2022/05/30 09:36:10;;;;;;;7.47;2.90;;;;;;;;;;5088893;28;20447;-70
2022/05/30 09:38:39;;;;;;;4.00;2.88;;;;;;;;;;5105899;28;20043;-72
2022/05/30 09:41:06;;;;;;;;;;;;;;;;;;5110913;28;20473;-72
2022/05/30 09:43:52;;;;;;;14.35;3.30;;;;;;;;;;5106804;28;19915;-72
2022/05/30 09:46:23;;;;;;;6.95;3.15;;;;;;;;;;5105350;28;20043;-73
2022/05/30 09:49:02;;;;;;;7.20;3.80;;;;;;;;;;5105057;28;20031;-72
2022/05/30 09:51:30;;;;;;;7.22;3.30;;;;;;;;;;5109942;28;20038;-73
2022/05/30 09:53:55;;;;;;;5.13;3.00;;;;;;;;;;5109270;28;20112;-72
2022/05/30 09:56:21;;;;;;;6.53;3.30;;;;;;;;;;5109138;28;20035;-72
2022/05/30 09:58:48;;;;;;;6.97;3.40;;;;;;;;;;5109908;28;20043;-74
2022/05/30 10:01:22;;;;;;;4.35;3.28;;;;;;;;;;5109843;28;20279;-75
2022/05/30 10:03:48;;;;;;;6.65;3.88;;;;;;;;;;5091131;28;20051;-73
2022/05/30 10:06:15;;;;;;;6.38;3.20;;;;;;;;;;5083842;28;20516;-72
2022/05/30 10:08:41;;;;;;;5.25;3.25;;;;;;;;;;5110585;28;20062;-73
2022/05/30 10:11:06;;;;;;;7.53;4.05;;;;;;;;;;5109197;28;20066;-73
2022/05/30 10:13:42;;;;;;;6.75;3.35;;;;;;;;;;5088895;28;20043;-73
2022/05/30 10:16:12;;;;;;;5.20;3.47;;;;;;;;;;5105840;28;20039;-73
2022/05/30 10:18:37;;;;;;;;;;;;;;;;;;5088579;28;20043;-73
2022/05/30 10:21:22;;;;;;;6.85;3.35;;;;;;;;;;5111086;28;19920;-73
2022/05/30 10:29:27;;;;;;;;;;;;;;;;;;5110615;28;20028;-68
2022/05/30 10:31:54;;;;;;;6.57;2.72;;;;;;;;;;5105290;28;19919;-73
2022/05/30 10:34:42;;;;;;;8.30;3.00;;;;;;;;;;5090739;28;20051;-74
2022/05/30 10:37:26;;;;;;;8.85;2.88;;;;;;;;;;5109989;28;20047;-73
2022/05/30 10:40:07;;;;;;;8.48;3.70;;;;;;;;;;5092880;28;20115;-69
2022/05/30 10:42:32;;;;;;;6.28;3.50;;;;;;;;;;5103963;28;20547;-72
2022/05/30 10:45:01;;;;;;;8.10;2.97;;;;;;;;;;5110395;28;20071;-71
2022/05/30 10:47:45;;;;;;;4.63;2.95;;;;;;;17.51;nan;100206.13;5086072;28;20279;-69
2022/05/30 10:50:42;;;;;;;7.78;3.22;;;;;;;17.62;nan;100198.88;5086672;28;20028;-69
2022/05/30 10:53:11;;;;;;;5.90;3.13;;;;;;;;;;5101285;28;20030;-74
2022/05/30 10:55:38;;;;;;;6.07;2.70;;;;;;;;;;5091120;28;20089;-74
2022/05/30 10:58:18;;;;;;;5.95;2.97;;;;;;;;;;5105068;28;20039;-73
2022/05/30 11:00:50;;;;;;;5.57;3.00;;;;;;;;;;5078931;28;20388;-74
2022/05/30 11:03:20;;;;;;;5.15;3.35;;;;;;;;;;5107551;28;20038;-74
2022/05/30 11:06:03;;;;;;;7.03;3.20;;;;;;;17.61;nan;100192.75;5092376;28;20476;-74
2022/05/30 11:08:37;;;;;;;4.43;2.90;;;;;;;;;;5108559;28;20024;-74
2022/05/30 11:11:18;;;;;;;6.97;3.03;;;;;;;;;;5106566;28;20039;-74
2022/05/30 11:13:47;;;;;;;9.23;2.72;;;;;;;;;;5082352;28;20134;-74
2022/05/30 11:16:31;;;;;;;5.45;2.38;;;;;;;;;;5106166;28;20118;-74
2022/05/30 11:19:09;;;;;;;7.43;2.75;;;;;;;;;;5107971;28;20023;-74
2022/05/30 11:21:55;;;;;;;7.07;3.00;;;;;;;;;;5110773;28;20035;-75
2022/05/30 11:24:20;;;;;;;4.35;2.55;;;;;;;;;;5087717;28;20038;-72
2022/05/30 11:26:59;;;;;;;4.43;2.55;;;;;;;17.95;nan;100173.34;5094489;28;20039;-71
2022/05/30 11:29:46;;;;;;;3.22;2.28;;;;;;;18.01;nan;100193.56;5113087;28;20040;-74
2022/05/30 11:32:45;;;;;;;3.65;2.55;;;;;;;18.06;nan;100182.84;5112642;28;20043;-74
2022/05/30 11:35:20;;;;;;;5.95;2.47;;;;;;;18.11;nan;100174.03;5089330;28;20038;-74
2022/05/30 11:38:04;;;;;;;4.82;2.88;;;;;;;;;;5095664;28;20043;-73
2022/05/30 11:40:44;;;;;;;5.63;2.72;;;;;;;18.28;nan;100217.03;5106327;28;20035;-70
2022/05/30 11:43:18;;;;;;;;;;;;;;;18.35;nan;100208.72;5083285;28;20035;-73
2022/05/30 11:45:55;;;;;;;4.40;2.55;;;;;;;18.41;nan;100206.78;5113960;28;19912;-74
2022/05/30 11:48:29;;;;;;;3.78;2.47;;;;;;;18.48;nan;100202.72;5093726;28;20043;-74
2022/05/30 11:51:08;;;;;;;5.47;2.90;;;;;;;18.56;nan;100189.84;5086916;28;20036;-70
2022/05/30 11:54:11;;;;;;;5.47;3.10;;;;;;;18.58;nan;100195.69;5113581;28;20485;-73
2022/05/30 11:57:09;;;;;;;6.80;2.97;;;;;;;18.58;nan;100145.00;5022165;28;20042;-74
2022/05/30 12:00:20;;;;;;;7.10;3.00;;;;;;;18.70;nan;100196.91;5028046;28;20526;-72
2022/05/30 12:02:56;;;;;;;5.32;2.85;;;;;;;18.86;nan;100216.19;4972106;28;20085;-69
2022/05/30 12:05:55;;;;;;;10.25;3.15;;;;;;;18.94;nan;100197.97;4972477;28;20362;-67
2022/05/30 12:08:39;;;;;;;5.18;2.75;;;;;;;19.04;nan;100232.56;4970623;28;20035;-68
2022/05/30 12:11:41;;;;;;;9.43;3.10;;;;;;;19.13;nan;100222.84;4970977;28;20035;-74
2022/05/30 12:14:29;;;;;;;4.20;2.70;;;;;;;19.25;nan;100215.22;4949964;28;20062;-72
2022/05/30 12:17:17;;;;;;;6.00;2.92;;;;;;;19.37;nan;100198.78;4982644;28;20042;-73
2022/05/30 12:25:36;;;;;;;4.85;3.30;;;;;;;19.39;nan;100260.66;4972673;28;20031;-73
2022/05/30 12:28:01;;;;;;;4.40;2.97;;;;;;;19.45;nan;100258.75;4954392;28;20031;-74
2022/05/30 12:30:42;;;;;;;6.40;3.80;;;;;;;19.42;nan;100257.44;4970684;28;20057;-73
2022/05/30 12:33:33;;;;;;;10.20;3.58;;;;;;;19.52;nan;100265.31;4992721;28;20044;-73
2022/05/30 12:36:10;;;;;;;6.30;3.17;;;;;;;19.60;nan;100258.53;5044905;28;20032;-74
2022/05/30 12:38:52;;;;;;;5.90;3.25;;;;;;;19.61;nan;100253.97;5080409;28;20224;-73
2022/05/30 12:41:20;;;;;;;8.43;3.47;;;;;;;19.68;nan;100247.25;5081421;28;20027;-73
2022/05/30 12:43:47;;;;;;;4.05;2.85;;;;;;;19.70;nan;100237.03;5100465;28;20055;-73
2022/05/30 12:46:19;;;;;;;10.68;3.60;;;;;;;19.85;nan;100240.56;5106052;28;20036;-73
2022/05/30 12:48:52;;;;;;;4.75;3.08;;;;;;;19.87;nan;100249.91;5104245;28;20031;-73
2022/05/30 12:51:39;;;;;;;5.18;2.95;;;;;;;19.91;nan;100242.88;5097536;28;20080;-69
2022/05/30 12:54:07;;;;;;;5.75;3.20;;;;;;;19.92;nan;100257.84;5083437;28;20114;-69
2022/05/30 12:56:43;;;;;;;5.73;3.23;;;;;;;19.95;nan;100254.56;5104946;28;20039;-72
2022/05/30 12:59:29;;;;;;;10.30;3.55;;;;;;;19.97;nan;100251.63;5103908;28;20509;-73
2022/05/30 13:01:57;;;;;;;8.07;3.67;;;;;;;20.01;nan;100252.59;5087110;28;21247;-71
2022/05/30 13:04:35;;;;;;;5.30;3.50;;;;;;;19.96;nan;100244.69;5103715;28;20030;-72
2022/05/30 13:07:04;;;;;;;5.75;3.25;;;;;;;20.10;nan;100256.22;5096893;28;20379;-72
2022/05/30 13:09:36;;;;;;;8.10;3.67;;;;;;;20.04;nan;100257.41;5101722;28;20505;-73
2022/05/30 13:12:10;;;;;;;8.10;3.47;;;;;;;20.00;nan;100261.72;5104843;28;20056;-72
2022/05/30 13:14:56;;;;;;;6.93;3.53;;;;;;;20.08;nan;100257.59;5090862;28;20564;-71
2022/05/30 13:17:42;;;;;;;5.93;3.72;;;;;;;20.03;nan;100250.44;5099312;28;20045;-72
2022/05/30 13:20:16;;;;;;;4.93;3.17;;;;;;;20.11;nan;100260.50;5098935;28;20063;-71
2022/05/30 13:22:45;;;;;;;4.88;3.30;;;;;;;20.06;nan;100236.47;5104584;28;20039;-72
2022/05/30 13:25:39;;;;;;;6.85;3.47;;;;;;;20.25;nan;100247.13;5102212;28;20036;-73
2022/05/30 13:28:08;;;;;;;5.30;3.85;;;;;;;20.15;nan;100245.44;5109490;28;20051;-72
2022/05/30 13:30:35;;;;;;;8.13;4.20;;;;;;;20.14;nan;100245.75;5085142;28;20178;-73
2022/05/30 13:33:09;;;;;;;7.47;3.72;;;;;;;20.15;nan;100245.44;5107618;28;20023;-72
2022/05/30 13:35:38;;;;;;;6.40;3.50;;;;;;;20.08;nan;100234.31;5099538;28;20040;-73
2022/05/30 13:38:08;;;;;;;12.30;4.23;;;;;;;20.16;nan;100244.38;5098724;28;20076;-73
2022/05/30 13:40:34;;;;;;;11.82;4.20;;;;;;;20.20;nan;100241.88;5086345;28;20534;-71
2022/05/30 13:43:05;;;;;;;8.85;3.85;;;;;;;20.23;nan;100243.19;5101328;28;20110;-73
2022/05/30 13:45:36;;;;;;;5.80;3.40;;;;;;;20.21;nan;100237.31;5101275;28;20063;-73
2022/05/30 13:48:09;;;;;;;5.60;3.30;;;;;;;20.29;nan;100245.47;5099190;28;20039;-73
2022/05/30 13:50:40;;;;;;;5.43;3.33;;;;;;;20.33;nan;100240.34;5105769;28;20047;-73
2022/05/30 13:53:07;;;;;;;7.82;3.25;;;;;;;20.35;nan;100240.81;5090749;28;20496;-71
2022/05/30 13:55:32;;;;;;;7.95;3.50;;;;;;;20.36;nan;100237.09;5108464;28;20047;-71
2022/05/30 13:58:02;;;;;;;9.18;3.67;;;;;;;20.32;nan;100236.84;5110141;28;20169;-71
2022/05/30 14:00:35;;;;;;;8.05;4.07;;;;;;;20.31;nan;100235.28;5108630;28;20031;-71
2022/05/30 14:03:02;;;;;;;6.47;3.70;;;;;;;20.33;nan;100226.97;5091389;28;20486;-72
2022/05/30 14:05:40;;;;;;;7.50;4.00;;;;;;;20.34;nan;100234.69;5110577;28;20035;-70
2022/05/30 14:08:34;;;;;;;7.75;3.47;;;;;;;20.32;nan;100236.84;5109648;28;20031;-69
2022/05/30 14:11:08;;;;;;;9.30;3.72;;;;;;;20.34;nan;100233.91;5109112;28;20034;-70
2022/05/30 14:13:50;;;;;;;7.28;3.25;;;;;;;20.33;nan;100224.31;5110590;28;20082;-71
2022/05/30 14:16:31;;;;;;;6.10;3.65;;;;;;;20.19;nan;100214.34;5108597;28;20051;-70
2022/05/30 14:19:01;;;;;;;6.20;3.78;;;;;;;20.31;nan;100231.81;5110566;28;20442;-71
2022/05/30 14:21:27;;;;;;;6.90;3.30;;;;;;;19.97;nan;100169.56;5110584;28;20019;-71
2022/05/30 14:24:03;;;;;;;8.85;3.92;;;;;;;20.17;nan;100199.69;5091005;28;20039;-71
2022/05/30 14:26:34;;;;;;;5.55;3.67;;;;;;;20.29;nan;100221.41;5108814;28;20031;-71
2022/05/30 14:29:06;;;;;;;7.03;3.63;;;;;;;20.26;nan;100218.53;5110759;28;20119;-71
2022/05/30 14:31:34;;;;;;;7.10;3.85;;;;;;;20.25;nan;100219.63;5106860;28;20035;-70
2022/05/30 14:34:11;;;;;;;6.60;3.42;;;;;;;20.28;nan;100221.69;5107389;28;20055;-72
2022/05/30 14:36:40;;;;;;;7.57;4.28;;;;;;;20.31;nan;100235.28;5109748;28;20035;-70